AAL2512 KDFW-KTPA
Flight info
| Callsign | AAL2512 |
|---|---|
| Flight time | 1h 49m |
| Altitude | 37000 |
| Route | MRSSH3 ZALEA HRV Q105 REDFN Y280 CHRGE RAYZZ3 |
| Aircraft | B38M/M-SDE1FGHILORVWXY/HB1 |
Departure
| Time | 2026-05-04 22:57 |
|---|---|
| Airport | Dallas Fort Worth International Airport (KDFW) |
Arrival
| Time | 2026-05-05 00:46 |
|---|---|
| Airport | Tampa International Airport (KTPA) |
| Time | Latitude | Longitude | Altitude | Speed | Heading |
|---|---|---|---|---|---|
| 2026-05-04 22:28 | 32.90179 | -97.03738 | 589 ft | 0 kts | 353° |
| 2026-05-04 22:45 | 32.90174 | -97.03737 | 589 ft | 4 kts | 353° |
| 2026-05-04 22:45 | 32.90128 | -97.03728 | 589 ft | 4 kts | 324° |
| 2026-05-04 22:45 | 32.90120 | -97.03706 | 589 ft | 4 kts | 263° |
| 2026-05-04 22:46 | 32.90125 | -97.03675 | 589 ft | 4 kts | 258° |
| 2026-05-04 22:46 | 32.90130 | -97.03644 | 589 ft | 4 kts | 261° |
| 2026-05-04 22:46 | 32.90135 | -97.03613 | 589 ft | 4 kts | 258° |
| 2026-05-04 22:46 | 32.90142 | -97.03584 | 589 ft | 4 kts | 238° |
| 2026-05-04 22:47 | 32.90156 | -97.03562 | 589 ft | 4 kts | 229° |
| 2026-05-04 22:47 | 32.90175 | -97.03540 | 589 ft | 4 kts | 214° |
| 2026-05-04 22:47 | 32.90187 | -97.03532 | 589 ft | 0 kts | 205° |
| 2026-05-04 22:49 | 32.90186 | -97.03532 | 589 ft | 0 kts | 205° |
| 2026-05-04 22:50 | 32.90179 | -97.03536 | 589 ft | 2 kts | 205° |
| 2026-05-04 22:50 | 32.90159 | -97.03541 | 589 ft | 4 kts | 179° |
| 2026-05-04 22:50 | 32.90126 | -97.03531 | 589 ft | 8 kts | 149° |
| 2026-05-04 22:50 | 32.90109 | -97.03442 | 589 ft | 14 kts | 87° |
| 2026-05-04 22:51 | 32.90111 | -97.03360 | 589 ft | 11 kts | 89° |
| 2026-05-04 22:51 | 32.90170 | -97.03312 | 587 ft | 14 kts | 1° |
| 2026-05-04 22:51 | 32.90278 | -97.03312 | 587 ft | 18 kts | 0° |
| 2026-05-04 22:51 | 32.90417 | -97.03312 | 587 ft | 22 kts | 0° |
| 2026-05-04 22:52 | 32.90572 | -97.03310 | 587 ft | 23 kts | 360° |
| 2026-05-04 22:52 | 32.90686 | -97.03310 | 587 ft | 14 kts | 0° |
| 2026-05-04 22:52 | 32.90791 | -97.03310 | 588 ft | 16 kts | 0° |
| 2026-05-04 22:52 | 32.90906 | -97.03309 | 587 ft | 18 kts | 0° |
| 2026-05-04 22:53 | 32.91040 | -97.03279 | 582 ft | 22 kts | 12° |
| 2026-05-04 22:53 | 32.91195 | -97.03273 | 583 ft | 23 kts | 0° |
| 2026-05-04 22:53 | 32.91344 | -97.03272 | 583 ft | 19 kts | 0° |
| 2026-05-04 22:53 | 32.91477 | -97.03271 | 581 ft | 18 kts | 360° |
| 2026-05-04 22:54 | 32.91560 | -97.03243 | 581 ft | 10 kts | 73° |
| 2026-05-04 22:54 | 32.91560 | -97.03154 | 583 ft | 12 kts | 91° |
| 2026-05-04 22:54 | 32.91559 | -97.03053 | 578 ft | 13 kts | 90° |
| 2026-05-04 22:54 | 32.91545 | -97.02989 | 578 ft | 4 kts | 151° |
| 2026-05-04 22:55 | 32.91535 | -97.02988 | 584 ft | 0 kts | 180° |
| 2026-05-04 22:56 | 32.91419 | -97.02989 | 581 ft | 49 kts | 180° |
| 2026-05-04 22:56 | 32.90835 | -97.02992 | 576 ft | 117 kts | 180° |
| 2026-05-04 22:56 | 32.89832 | -97.02999 | 657 ft | 166 kts | 179° |
| 2026-05-04 22:57 | 32.88648 | -97.03018 | 1418 ft | 173 kts | 180° |
| 2026-05-04 22:57 | 32.87459 | -97.03038 | 2187 ft | 173 kts | 182° |
| 2026-05-04 22:57 | 32.86197 | -97.03012 | 2805 ft | 193 kts | 179° |
| 2026-05-04 22:57 | 32.84784 | -97.02984 | 3486 ft | 211 kts | 182° |
| 2026-05-04 22:58 | 32.83274 | -97.02966 | 4281 ft | 222 kts | 184° |
| 2026-05-04 22:58 | 32.81702 | -97.02961 | 5122 ft | 232 kts | 185° |
| 2026-05-04 22:58 | 32.80053 | -97.02963 | 5964 ft | 241 kts | 186° |
| 2026-05-04 22:58 | 32.78323 | -97.02971 | 6705 ft | 257 kts | 185° |
| 2026-05-04 22:59 | 32.76478 | -97.02981 | 7374 ft | 271 kts | 186° |
| 2026-05-04 22:59 | 32.74556 | -97.02993 | 8183 ft | 280 kts | 186° |
| 2026-05-04 22:59 | 32.72599 | -97.02600 | 9083 ft | 294 kts | 162° |
| 2026-05-04 22:59 | 32.70880 | -97.01196 | 9935 ft | 311 kts | 135° |
| 2026-05-04 23:00 | 32.69769 | -96.98929 | 10542 ft | 331 kts | 108° |
| 2026-05-04 23:00 | 32.69262 | -96.96189 | 11022 ft | 347 kts | 104° |
| 2026-05-04 23:00 | 32.68812 | -96.93361 | 11573 ft | 361 kts | 92° |
| 2026-05-04 23:00 | 32.68861 | -96.90371 | 12359 ft | 364 kts | 87° |
| 2026-05-04 23:01 | 32.68922 | -96.87340 | 13128 ft | 369 kts | 87° |
| 2026-05-04 23:01 | 32.68976 | -96.84275 | 13882 ft | 374 kts | 87° |
| 2026-05-04 23:01 | 32.69026 | -96.81165 | 14527 ft | 379 kts | 87° |
| 2026-05-04 23:01 | 32.69075 | -96.78013 | 15216 ft | 383 kts | 87° |
| 2026-05-04 23:02 | 32.69123 | -96.74832 | 15871 ft | 388 kts | 87° |
| 2026-05-04 23:02 | 32.69172 | -96.71613 | 16520 ft | 392 kts | 86° |
| 2026-05-04 23:02 | 32.69219 | -96.68354 | 17171 ft | 396 kts | 86° |
| 2026-05-04 23:02 | 32.69266 | -96.65077 | 17790 ft | 400 kts | 86° |
| 2026-05-04 23:03 | 32.69313 | -96.61756 | 18382 ft | 404 kts | 86° |
| 2026-05-04 23:03 | 32.69360 | -96.58395 | 18876 ft | 410 kts | 86° |
| 2026-05-04 23:03 | 32.69405 | -96.55038 | 19401 ft | 414 kts | 86° |
| 2026-05-04 23:03 | 32.69451 | -96.51598 | 19897 ft | 419 kts | 85° |
| 2026-05-04 23:04 | 32.69496 | -96.48108 | 20375 ft | 425 kts | 85° |
| 2026-05-04 23:04 | 32.69541 | -96.44578 | 20882 ft | 429 kts | 86° |
| 2026-05-04 23:04 | 32.69585 | -96.41034 | 21430 ft | 431 kts | 85° |
| 2026-05-04 23:04 | 32.69629 | -96.37453 | 21876 ft | 436 kts | 85° |
| 2026-05-04 23:05 | 32.69657 | -96.33833 | 22370 ft | 441 kts | 89° |
| 2026-05-04 23:05 | 32.69402 | -96.30181 | 22847 ft | 446 kts | 92° |
| 2026-05-04 23:05 | 32.69137 | -96.26488 | 23299 ft | 451 kts | 91° |
| 2026-05-04 23:05 | 32.68887 | -96.22761 | 23694 ft | 455 kts | 91° |
| 2026-05-04 23:06 | 32.68644 | -96.19001 | 24062 ft | 459 kts | 91° |
| 2026-05-04 23:06 | 32.68400 | -96.15202 | 24419 ft | 463 kts | 91° |
| 2026-05-04 23:06 | 32.68154 | -96.11375 | 24797 ft | 467 kts | 91° |
| 2026-05-04 23:06 | 32.67906 | -96.07528 | 25176 ft | 470 kts | 91° |
| 2026-05-04 23:07 | 32.67656 | -96.03648 | 25636 ft | 471 kts | 91° |
| 2026-05-04 23:07 | 32.67403 | -95.99753 | 25948 ft | 476 kts | 91° |
| 2026-05-04 23:07 | 32.67145 | -95.95820 | 26288 ft | 480 kts | 91° |
| 2026-05-04 23:07 | 32.66889 | -95.91905 | 26630 ft | 483 kts | 91° |
| 2026-05-04 23:08 | 32.66622 | -95.87859 | 26950 ft | 488 kts | 91° |
| 2026-05-04 23:08 | 32.66355 | -95.83882 | 27288 ft | 491 kts | 91° |
| 2026-05-04 23:08 | 32.66068 | -95.79774 | 27619 ft | 495 kts | 91° |
| 2026-05-04 23:08 | 32.65787 | -95.75747 | 27934 ft | 498 kts | 91° |
| 2026-05-04 23:09 | 32.65499 | -95.71637 | 28247 ft | 502 kts | 91° |
| 2026-05-04 23:09 | 32.65208 | -95.67498 | 28608 ft | 504 kts | 91° |
| 2026-05-04 23:09 | 32.64914 | -95.63340 | 28942 ft | 508 kts | 91° |
| 2026-05-04 23:09 | 32.64616 | -95.59147 | 29213 ft | 511 kts | 90° |
| 2026-05-04 23:10 | 32.64315 | -95.54926 | 29515 ft | 515 kts | 90° |
| 2026-05-04 23:10 | 32.64011 | -95.50692 | 29805 ft | 518 kts | 90° |
| 2026-05-04 23:10 | 32.63703 | -95.46413 | 30068 ft | 521 kts | 90° |
| 2026-05-04 23:10 | 32.63391 | -95.42108 | 30337 ft | 524 kts | 90° |
| 2026-05-04 23:11 | 32.63077 | -95.37786 | 30612 ft | 526 kts | 90° |
| 2026-05-04 23:11 | 32.62760 | -95.33454 | 30877 ft | 528 kts | 90° |
| 2026-05-04 23:11 | 32.62441 | -95.29110 | 31195 ft | 530 kts | 90° |
| 2026-05-04 23:11 | 32.62119 | -95.24744 | 31468 ft | 532 kts | 90° |
| 2026-05-04 23:12 | 32.61794 | -95.20367 | 31721 ft | 535 kts | 90° |
| 2026-05-04 23:12 | 32.61467 | -95.15968 | 31976 ft | 537 kts | 90° |
| 2026-05-04 23:12 | 32.61140 | -95.11602 | 32224 ft | 539 kts | 90° |
| 2026-05-04 23:12 | 32.60806 | -95.07158 | 32463 ft | 542 kts | 90° |
| 2026-05-04 23:13 | 32.60469 | -95.02700 | 32708 ft | 544 kts | 90° |
| 2026-05-04 23:13 | 32.60129 | -94.98217 | 32946 ft | 546 kts | 90° |
| 2026-05-04 23:13 | 32.59786 | -94.93724 | 33203 ft | 548 kts | 89° |
| 2026-05-04 23:13 | 32.59440 | -94.89217 | 33447 ft | 550 kts | 89° |
| 2026-05-04 23:14 | 32.59093 | -94.84690 | 33677 ft | 553 kts | 89° |
| 2026-05-04 23:14 | 32.58739 | -94.80138 | 33903 ft | 555 kts | 91° |
| 2026-05-04 23:14 | 32.57973 | -94.75622 | 34109 ft | 564 kts | 105° |
| 2026-05-04 23:14 | 32.56730 | -94.71208 | 34338 ft | 565 kts | 105° |
| 2026-05-04 23:15 | 32.55512 | -94.66759 | 34478 ft | 568 kts | 105° |
| 2026-05-04 23:15 | 32.54272 | -94.62321 | 34768 ft | 568 kts | 106° |
| 2026-05-04 23:15 | 32.53016 | -94.57872 | 34877 ft | 570 kts | 106° |
| 2026-05-04 23:15 | 32.51758 | -94.53426 | 34903 ft | 567 kts | 106° |
| 2026-05-04 23:16 | 32.49255 | -94.44600 | 34885 ft | 565 kts | 106° |
| 2026-05-04 23:16 | 32.46747 | -94.35780 | 34888 ft | 565 kts | 106° |
| 2026-05-04 23:17 | 32.44222 | -94.26930 | 34890 ft | 570 kts | 106° |
| 2026-05-04 23:17 | 32.42102 | -94.19517 | 34893 ft | 574 kts | 106° |
| 2026-05-04 23:18 | 32.39529 | -94.10551 | 34899 ft | 575 kts | 106° |
| 2026-05-04 23:18 | 32.36952 | -94.01594 | 34911 ft | 576 kts | 106° |
| 2026-05-04 23:19 | 32.34366 | -93.92632 | 34925 ft | 576 kts | 106° |
| 2026-05-04 23:19 | 32.31771 | -93.83669 | 34919 ft | 576 kts | 106° |
| 2026-05-04 23:20 | 32.29184 | -93.74760 | 34896 ft | 578 kts | 106° |
| 2026-05-04 23:20 | 32.26566 | -93.65769 | 34924 ft | 577 kts | 106° |
| 2026-05-04 23:21 | 32.23951 | -93.56813 | 34928 ft | 577 kts | 106° |
| 2026-05-04 23:21 | 32.21059 | -93.47970 | 34913 ft | 579 kts | 120° |
| 2026-05-04 23:22 | 32.16396 | -93.40258 | 34916 ft | 579 kts | 128° |
| 2026-05-04 23:22 | 32.11529 | -93.32701 | 34940 ft | 578 kts | 129° |
| 2026-05-04 23:23 | 32.06620 | -93.25186 | 34941 ft | 578 kts | 129° |
| 2026-05-04 23:23 | 32.01706 | -93.17676 | 34919 ft | 577 kts | 129° |
| 2026-05-04 23:24 | 31.99252 | -93.13934 | 35090 ft | 577 kts | 129° |
| 2026-05-04 23:24 | 31.96798 | -93.10192 | 35335 ft | 578 kts | 129° |
| 2026-05-04 23:24 | 31.94338 | -93.06447 | 35562 ft | 578 kts | 129° |
| 2026-05-04 23:24 | 31.91878 | -93.02705 | 35826 ft | 578 kts | 129° |
| 2026-05-04 23:25 | 31.89413 | -92.98960 | 36058 ft | 578 kts | 129° |
| 2026-05-04 23:25 | 31.86950 | -92.95221 | 36298 ft | 578 kts | 129° |
| 2026-05-04 23:25 | 31.84480 | -92.91475 | 36538 ft | 577 kts | 129° |
| 2026-05-04 23:25 | 31.82051 | -92.87794 | 36776 ft | 577 kts | 129° |
| 2026-05-04 23:26 | 31.79560 | -92.84024 | 36962 ft | 577 kts | 129° |
| 2026-05-04 23:26 | 31.77129 | -92.80348 | 36985 ft | 577 kts | 129° |
| 2026-05-04 23:26 | 31.72222 | -92.72937 | 36994 ft | 573 kts | 129° |
| 2026-05-04 23:27 | 31.67326 | -92.65559 | 36980 ft | 573 kts | 129° |
| 2026-05-04 23:27 | 31.62418 | -92.58176 | 36970 ft | 574 kts | 129° |
| 2026-05-04 23:28 | 31.57497 | -92.50789 | 36967 ft | 574 kts | 130° |
| 2026-05-04 23:28 | 31.52577 | -92.43416 | 36966 ft | 574 kts | 129° |
| 2026-05-04 23:29 | 31.47649 | -92.36045 | 36946 ft | 573 kts | 129° |
| 2026-05-04 23:29 | 31.42768 | -92.28760 | 36976 ft | 572 kts | 129° |
| 2026-05-04 23:30 | 31.37848 | -92.21429 | 36963 ft | 573 kts | 129° |
| 2026-05-04 23:30 | 31.32914 | -92.14093 | 36962 ft | 573 kts | 130° |
| 2026-05-04 23:31 | 31.27977 | -92.06764 | 36986 ft | 573 kts | 130° |
| 2026-05-04 23:31 | 31.23038 | -91.99447 | 36986 ft | 573 kts | 130° |
| 2026-05-04 23:32 | 31.18102 | -91.92147 | 36988 ft | 571 kts | 130° |
| 2026-05-04 23:32 | 31.13169 | -91.84867 | 36976 ft | 573 kts | 130° |
| 2026-05-04 23:33 | 31.08221 | -91.77577 | 36983 ft | 573 kts | 130° |
| 2026-05-04 23:33 | 31.03263 | -91.70287 | 36989 ft | 573 kts | 130° |
| 2026-05-04 23:34 | 30.98335 | -91.63055 | 36992 ft | 573 kts | 130° |
| 2026-05-04 23:34 | 30.93371 | -91.55783 | 36976 ft | 572 kts | 130° |
| 2026-05-04 23:35 | 30.88418 | -91.48540 | 36996 ft | 571 kts | 129° |
| 2026-05-04 23:35 | 30.83471 | -91.41319 | 36983 ft | 571 kts | 130° |
| 2026-05-04 23:36 | 30.78515 | -91.34100 | 36989 ft | 571 kts | 130° |
| 2026-05-04 23:36 | 30.73550 | -91.26879 | 36987 ft | 571 kts | 130° |
| 2026-05-04 23:37 | 30.68590 | -91.19680 | 37002 ft | 571 kts | 130° |
| 2026-05-04 23:37 | 30.63652 | -91.12524 | 37008 ft | 570 kts | 130° |
| 2026-05-04 23:38 | 30.58685 | -91.05341 | 37004 ft | 570 kts | 130° |
| 2026-05-04 23:38 | 30.53720 | -90.98173 | 37009 ft | 570 kts | 130° |
| 2026-05-04 23:39 | 30.48750 | -90.91011 | 37011 ft | 570 kts | 130° |
| 2026-05-04 23:39 | 30.43775 | -90.83855 | 37015 ft | 570 kts | 130° |
| 2026-05-04 23:40 | 30.38794 | -90.76703 | 36978 ft | 569 kts | 130° |
| 2026-05-04 23:40 | 30.33827 | -90.69584 | 37019 ft | 568 kts | 130° |
| 2026-05-04 23:41 | 30.28860 | -90.62478 | 37019 ft | 567 kts | 130° |
| 2026-05-04 23:41 | 30.23893 | -90.55384 | 37025 ft | 567 kts | 130° |
| 2026-05-04 23:42 | 30.18923 | -90.48299 | 37034 ft | 567 kts | 130° |
| 2026-05-04 23:42 | 30.13981 | -90.41266 | 37035 ft | 567 kts | 130° |
| 2026-05-04 23:43 | 30.08999 | -90.34189 | 37023 ft | 567 kts | 130° |
| 2026-05-04 23:43 | 30.04025 | -90.27133 | 37036 ft | 566 kts | 130° |
| 2026-05-04 23:44 | 29.99049 | -90.20086 | 37036 ft | 566 kts | 130° |
| 2026-05-04 23:44 | 29.94067 | -90.13044 | 37036 ft | 566 kts | 130° |
| 2026-05-04 23:45 | 29.89083 | -90.06010 | 37045 ft | 566 kts | 130° |
| 2026-05-04 23:45 | 29.84063 | -89.99020 | 37051 ft | 566 kts | 131° |
| 2026-05-04 23:46 | 29.79020 | -89.92136 | 37034 ft | 565 kts | 131° |
| 2026-05-04 23:46 | 29.73954 | -89.85213 | 37035 ft | 565 kts | 131° |
| 2026-05-04 23:47 | 29.68890 | -89.78307 | 37037 ft | 564 kts | 131° |
| 2026-05-04 23:47 | 29.63819 | -89.71419 | 37037 ft | 564 kts | 131° |
| 2026-05-04 23:48 | 29.58739 | -89.64529 | 37039 ft | 564 kts | 131° |
| 2026-05-04 23:48 | 29.53659 | -89.57651 | 36996 ft | 564 kts | 131° |
| 2026-05-04 23:49 | 29.48586 | -89.50795 | 37036 ft | 562 kts | 131° |
| 2026-05-04 23:49 | 29.43521 | -89.43960 | 37039 ft | 562 kts | 131° |
| 2026-05-04 23:50 | 29.38450 | -89.37128 | 37036 ft | 562 kts | 131° |
| 2026-05-04 23:50 | 29.33412 | -89.30353 | 37037 ft | 562 kts | 131° |
| 2026-05-04 23:51 | 29.28334 | -89.23536 | 37046 ft | 562 kts | 131° |
| 2026-05-04 23:51 | 29.23258 | -89.16732 | 37008 ft | 561 kts | 131° |
| 2026-05-04 23:52 | 29.18190 | -89.09951 | 37037 ft | 560 kts | 131° |
| 2026-05-04 23:52 | 29.13129 | -89.03190 | 37038 ft | 559 kts | 131° |
| 2026-05-04 23:53 | 29.08063 | -88.96433 | 37031 ft | 559 kts | 132° |
| 2026-05-04 23:53 | 29.02987 | -88.89675 | 37031 ft | 559 kts | 132° |
| 2026-05-04 23:54 | 28.97911 | -88.82927 | 37043 ft | 560 kts | 132° |
| 2026-05-04 23:54 | 28.92869 | -88.76234 | 37014 ft | 558 kts | 132° |
| 2026-05-04 23:55 | 28.88211 | -88.69203 | 36987 ft | 554 kts | 112° |
| 2026-05-04 23:56 | 28.84594 | -88.56763 | 37030 ft | 552 kts | 104° |
| 2026-05-04 23:56 | 28.82268 | -88.48398 | 37033 ft | 553 kts | 104° |
| 2026-05-04 23:57 | 28.79943 | -88.40037 | 37027 ft | 553 kts | 104° |
| 2026-05-04 23:57 | 28.77611 | -88.31674 | 37041 ft | 554 kts | 104° |
| 2026-05-04 23:58 | 28.75274 | -88.23318 | 37038 ft | 554 kts | 104° |
| 2026-05-04 23:58 | 28.72946 | -88.15013 | 37036 ft | 554 kts | 104° |
| 2026-05-04 23:59 | 28.70597 | -88.06656 | 37042 ft | 554 kts | 104° |
| 2026-05-04 23:59 | 28.68244 | -87.98307 | 37033 ft | 553 kts | 104° |
| 2026-05-05 00:00 | 28.65886 | -87.89965 | 37033 ft | 553 kts | 104° |
| 2026-05-05 00:00 | 28.63519 | -87.81611 | 37024 ft | 552 kts | 104° |
| 2026-05-05 00:01 | 28.61157 | -87.73296 | 37036 ft | 551 kts | 104° |
| 2026-05-05 00:01 | 28.58810 | -87.65056 | 37042 ft | 551 kts | 104° |
| 2026-05-05 00:02 | 28.56442 | -87.56766 | 37029 ft | 551 kts | 104° |
| 2026-05-05 00:02 | 28.54072 | -87.48486 | 37033 ft | 551 kts | 104° |
| 2026-05-05 00:03 | 28.51697 | -87.40211 | 37037 ft | 551 kts | 104° |
| 2026-05-05 00:03 | 28.49313 | -87.31927 | 37056 ft | 551 kts | 104° |
| 2026-05-05 00:04 | 28.46922 | -87.23642 | 37034 ft | 551 kts | 104° |
| 2026-05-05 00:04 | 28.44527 | -87.15358 | 37036 ft | 552 kts | 104° |
| 2026-05-05 00:05 | 28.42145 | -87.07145 | 36747 ft | 538 kts | 104° |
| 2026-05-05 00:05 | 28.40982 | -87.03141 | 36100 ft | 530 kts | 104° |
| 2026-05-05 00:05 | 28.39835 | -86.99196 | 35450 ft | 523 kts | 104° |
| 2026-05-05 00:05 | 28.38700 | -86.95299 | 34848 ft | 516 kts | 104° |
| 2026-05-05 00:06 | 28.37579 | -86.91455 | 34258 ft | 509 kts | 104° |
| 2026-05-05 00:06 | 28.36473 | -86.87665 | 33595 ft | 503 kts | 104° |
| 2026-05-05 00:06 | 28.35377 | -86.83916 | 33092 ft | 499 kts | 104° |
| 2026-05-05 00:07 | 28.33177 | -86.76395 | 33055 ft | 507 kts | 104° |
| 2026-05-05 00:07 | 28.30917 | -86.68661 | 33013 ft | 524 kts | 104° |
| 2026-05-05 00:08 | 28.28621 | -86.60787 | 33025 ft | 531 kts | 104° |
| 2026-05-05 00:08 | 28.26295 | -86.52830 | 33036 ft | 531 kts | 104° |
| 2026-05-05 00:09 | 28.23970 | -86.44893 | 33020 ft | 531 kts | 104° |
| 2026-05-05 00:09 | 28.22026 | -86.38272 | 33021 ft | 531 kts | 104° |
| 2026-05-05 00:10 | 28.19687 | -86.30322 | 33023 ft | 531 kts | 104° |
| 2026-05-05 00:10 | 28.17343 | -86.22373 | 33023 ft | 531 kts | 104° |
| 2026-05-05 00:11 | 28.14993 | -86.14427 | 33026 ft | 531 kts | 105° |
| 2026-05-05 00:11 | 28.12641 | -86.06491 | 33028 ft | 531 kts | 105° |
| 2026-05-05 00:12 | 28.10282 | -85.98550 | 33029 ft | 531 kts | 105° |
| 2026-05-05 00:12 | 28.07923 | -85.90627 | 33015 ft | 531 kts | 105° |
| 2026-05-05 00:13 | 28.05557 | -85.82700 | 33019 ft | 531 kts | 105° |
| 2026-05-05 00:13 | 28.03202 | -85.74830 | 33028 ft | 531 kts | 105° |
| 2026-05-05 00:14 | 28.00825 | -85.66904 | 33039 ft | 533 kts | 105° |
| 2026-05-05 00:14 | 27.98398 | -85.58829 | 32989 ft | 550 kts | 105° |
| 2026-05-05 00:15 | 27.95906 | -85.50559 | 33015 ft | 559 kts | 105° |
| 2026-05-05 00:15 | 27.93395 | -85.42247 | 33032 ft | 558 kts | 105° |
| 2026-05-05 00:16 | 27.90885 | -85.33954 | 33023 ft | 557 kts | 105° |
| 2026-05-05 00:16 | 27.88449 | -85.25648 | 33016 ft | 553 kts | 99° |
| 2026-05-05 00:17 | 27.86966 | -85.17148 | 33022 ft | 551 kts | 96° |
| 2026-05-05 00:17 | 27.85533 | -85.08633 | 33027 ft | 551 kts | 96° |
| 2026-05-05 00:18 | 27.84099 | -85.00121 | 33033 ft | 551 kts | 96° |
| 2026-05-05 00:18 | 27.82662 | -84.91621 | 33027 ft | 550 kts | 96° |
| 2026-05-05 00:19 | 27.81396 | -84.83119 | 33004 ft | 543 kts | 85° |
| 2026-05-05 00:19 | 27.81677 | -84.74681 | 33001 ft | 538 kts | 81° |
| 2026-05-05 00:20 | 27.82059 | -84.66255 | 33043 ft | 538 kts | 80° |
| 2026-05-05 00:20 | 27.82456 | -84.57873 | 33026 ft | 537 kts | 80° |
| 2026-05-05 00:21 | 27.82853 | -84.49389 | 33026 ft | 537 kts | 80° |
| 2026-05-05 00:21 | 27.83242 | -84.41008 | 32901 ft | 538 kts | 81° |
| 2026-05-05 00:21 | 27.83434 | -84.36808 | 32068 ft | 537 kts | 81° |
| 2026-05-05 00:22 | 27.83627 | -84.32571 | 30834 ft | 539 kts | 81° |
| 2026-05-05 00:22 | 27.83816 | -84.28360 | 29747 ft | 533 kts | 82° |
| 2026-05-05 00:22 | 27.84002 | -84.24203 | 28669 ft | 526 kts | 82° |
| 2026-05-05 00:22 | 27.84186 | -84.20089 | 27840 ft | 523 kts | 83° |
| 2026-05-05 00:23 | 27.84368 | -84.15981 | 26832 ft | 526 kts | 83° |
| 2026-05-05 00:23 | 27.84551 | -84.11832 | 25734 ft | 528 kts | 84° |
| 2026-05-05 00:23 | 27.84733 | -84.07675 | 24626 ft | 533 kts | 84° |
| 2026-05-05 00:23 | 27.84916 | -84.03471 | 23709 ft | 535 kts | 85° |
| 2026-05-05 00:24 | 27.85096 | -83.99299 | 22993 ft | 528 kts | 85° |
| 2026-05-05 00:24 | 27.85274 | -83.95169 | 22290 ft | 521 kts | 85° |
| 2026-05-05 00:24 | 27.85518 | -83.91153 | 21402 ft | 505 kts | 82° |
| 2026-05-05 00:24 | 27.85858 | -83.87244 | 20291 ft | 495 kts | 83° |
| 2026-05-05 00:25 | 27.86176 | -83.83400 | 19190 ft | 487 kts | 83° |
| 2026-05-05 00:25 | 27.86481 | -83.79619 | 18103 ft | 479 kts | 84° |
| 2026-05-05 00:25 | 27.86776 | -83.75943 | 17421 ft | 461 kts | 84° |
| 2026-05-05 00:25 | 27.87059 | -83.72417 | 16898 ft | 441 kts | 84° |
| 2026-05-05 00:26 | 27.87328 | -83.69040 | 16644 ft | 416 kts | 84° |
| 2026-05-05 00:26 | 27.87579 | -83.65877 | 16642 ft | 396 kts | 84° |
| 2026-05-05 00:26 | 27.87817 | -83.62872 | 16541 ft | 384 kts | 84° |
| 2026-05-05 00:26 | 27.88054 | -83.59875 | 16167 ft | 381 kts | 84° |
| 2026-05-05 00:27 | 27.88288 | -83.56899 | 15744 ft | 379 kts | 84° |
| 2026-05-05 00:27 | 27.88517 | -83.53978 | 15341 ft | 367 kts | 84° |
| 2026-05-05 00:27 | 27.88739 | -83.51147 | 14937 ft | 357 kts | 84° |
| 2026-05-05 00:27 | 27.88954 | -83.48394 | 14540 ft | 347 kts | 84° |
| 2026-05-05 00:28 | 27.89163 | -83.45707 | 14148 ft | 338 kts | 84° |
| 2026-05-05 00:28 | 27.89367 | -83.43094 | 13755 ft | 330 kts | 84° |
| 2026-05-05 00:28 | 27.89565 | -83.40538 | 13332 ft | 322 kts | 85° |
| 2026-05-05 00:28 | 27.89757 | -83.38052 | 12961 ft | 313 kts | 85° |
| 2026-05-05 00:29 | 27.89945 | -83.35610 | 12606 ft | 311 kts | 85° |
| 2026-05-05 00:29 | 27.90133 | -83.33179 | 12265 ft | 309 kts | 85° |
| 2026-05-05 00:29 | 27.90318 | -83.30763 | 11922 ft | 309 kts | 85° |
| 2026-05-05 00:29 | 27.90505 | -83.28334 | 11575 ft | 310 kts | 85° |
| 2026-05-05 00:30 | 27.90690 | -83.25910 | 11220 ft | 309 kts | 85° |
| 2026-05-05 00:30 | 27.90875 | -83.23485 | 10862 ft | 309 kts | 85° |
| 2026-05-05 00:30 | 27.91060 | -83.21056 | 10513 ft | 309 kts | 85° |
| 2026-05-05 00:30 | 27.91242 | -83.18664 | 10169 ft | 309 kts | 85° |
| 2026-05-05 00:31 | 27.91663 | -83.16320 | 10041 ft | 300 kts | 66° |
| 2026-05-05 00:31 | 27.92579 | -83.14224 | 10028 ft | 296 kts | 63° |
| 2026-05-05 00:31 | 27.93497 | -83.12139 | 10006 ft | 296 kts | 63° |
| 2026-05-05 00:31 | 27.94417 | -83.10058 | 10005 ft | 296 kts | 63° |
| 2026-05-05 00:32 | 27.95343 | -83.07973 | 10008 ft | 296 kts | 63° |
| 2026-05-05 00:32 | 27.96269 | -83.05888 | 10006 ft | 296 kts | 63° |
| 2026-05-05 00:32 | 27.97194 | -83.03805 | 10006 ft | 296 kts | 63° |
| 2026-05-05 00:32 | 27.98119 | -83.01723 | 10005 ft | 296 kts | 63° |
| 2026-05-05 00:33 | 27.99047 | -82.99636 | 10010 ft | 296 kts | 63° |
| 2026-05-05 00:33 | 27.99970 | -82.97556 | 10009 ft | 296 kts | 63° |
| 2026-05-05 00:33 | 28.00893 | -82.95475 | 9925 ft | 297 kts | 63° |
| 2026-05-05 00:33 | 28.01820 | -82.93384 | 9515 ft | 297 kts | 63° |
| 2026-05-05 00:34 | 28.02742 | -82.91301 | 9078 ft | 295 kts | 64° |
| 2026-05-05 00:34 | 28.03657 | -82.89239 | 8656 ft | 292 kts | 64° |
| 2026-05-05 00:34 | 28.04564 | -82.87192 | 8238 ft | 289 kts | 65° |
| 2026-05-05 00:34 | 28.05451 | -82.85165 | 7838 ft | 286 kts | 68° |
| 2026-05-05 00:35 | 28.05838 | -82.83007 | 7397 ft | 278 kts | 96° |
| 2026-05-05 00:35 | 28.05447 | -82.80900 | 7161 ft | 270 kts | 106° |
| 2026-05-05 00:35 | 28.04977 | -82.78867 | 7030 ft | 264 kts | 108° |
| 2026-05-05 00:35 | 28.04501 | -82.76854 | 6913 ft | 267 kts | 107° |
| 2026-05-05 00:36 | 28.04014 | -82.74831 | 6785 ft | 270 kts | 106° |
| 2026-05-05 00:36 | 28.03515 | -82.72787 | 6630 ft | 269 kts | 107° |
| 2026-05-05 00:36 | 28.03015 | -82.70758 | 6484 ft | 268 kts | 107° |
| 2026-05-05 00:36 | 28.02514 | -82.68734 | 6332 ft | 266 kts | 108° |
| 2026-05-05 00:37 | 28.02013 | -82.66721 | 6182 ft | 265 kts | 107° |
| 2026-05-05 00:37 | 28.01504 | -82.64718 | 6040 ft | 264 kts | 110° |
| 2026-05-05 00:37 | 28.00548 | -82.62988 | 5815 ft | 260 kts | 138° |
| 2026-05-05 00:37 | 27.99021 | -82.61985 | 5659 ft | 251 kts | 165° |
| 2026-05-05 00:38 | 27.97323 | -82.61775 | 5534 ft | 241 kts | 180° |
| 2026-05-05 00:38 | 27.95674 | -82.61781 | 5416 ft | 232 kts | 180° |
| 2026-05-05 00:38 | 27.94086 | -82.61807 | 5287 ft | 225 kts | 181° |
| 2026-05-05 00:38 | 27.92519 | -82.61846 | 5179 ft | 226 kts | 181° |
| 2026-05-05 00:39 | 27.90939 | -82.61893 | 5066 ft | 228 kts | 181° |
| 2026-05-05 00:39 | 27.89358 | -82.61946 | 5005 ft | 227 kts | 181° |
| 2026-05-05 00:39 | 27.87786 | -82.62002 | 4887 ft | 225 kts | 181° |
| 2026-05-05 00:39 | 27.86214 | -82.62062 | 4593 ft | 225 kts | 180° |
| 2026-05-05 00:40 | 27.84658 | -82.62123 | 4341 ft | 221 kts | 179° |
| 2026-05-05 00:40 | 27.83132 | -82.62182 | 4055 ft | 220 kts | 179° |
| 2026-05-05 00:40 | 27.81590 | -82.62241 | 3729 ft | 221 kts | 179° |
| 2026-05-05 00:40 | 27.80085 | -82.62300 | 3460 ft | 219 kts | 179° |
| 2026-05-05 00:41 | 27.78619 | -82.62010 | 3149 ft | 211 kts | 149° |
| 2026-05-05 00:41 | 27.77622 | -82.60898 | 2998 ft | 201 kts | 114° |
| 2026-05-05 00:41 | 27.77424 | -82.59357 | 2944 ft | 205 kts | 81° |
| 2026-05-05 00:41 | 27.78094 | -82.57932 | 2966 ft | 213 kts | 47° |
| 2026-05-05 00:42 | 27.79319 | -82.56949 | 3001 ft | 219 kts | 35° |
| 2026-05-05 00:42 | 27.80641 | -82.56087 | 2932 ft | 219 kts | 33° |
| 2026-05-05 00:42 | 27.81963 | -82.55230 | 2681 ft | 218 kts | 33° |
| 2026-05-05 00:42 | 27.83405 | -82.54681 | 2429 ft | 222 kts | 13° |
| 2026-05-05 00:43 | 27.84955 | -82.54589 | 2168 ft | 223 kts | 6° |
| 2026-05-05 00:43 | 27.86507 | -82.54571 | 1891 ft | 221 kts | 6° |
| 2026-05-05 00:43 | 27.88007 | -82.54522 | 1623 ft | 210 kts | 7° |
| 2026-05-05 00:43 | 27.89419 | -82.54471 | 1363 ft | 194 kts | 7° |
| 2026-05-05 00:44 | 27.90714 | -82.54429 | 1110 ft | 177 kts | 7° |
| 2026-05-05 00:44 | 27.91882 | -82.54389 | 908 ft | 158 kts | 7° |
| 2026-05-05 00:44 | 27.92934 | -82.54362 | 682 ft | 148 kts | 8° |
| 2026-05-05 00:44 | 27.93983 | -82.54310 | 532 ft | 154 kts | 6° |
| 2026-05-05 00:45 | 27.95067 | -82.54276 | 320 ft | 157 kts | 5° |
| 2026-05-05 00:45 | 27.96133 | -82.54249 | 97 ft | 153 kts | 5° |
| 2026-05-05 00:45 | 27.97116 | -82.54206 | 42 ft | 118 kts | 2° |
| 2026-05-05 00:45 | 27.97699 | -82.54189 | 34 ft | 51 kts | 1° |
| 2026-05-05 00:46 | 27.97892 | -82.54140 | 37 ft | 13 kts | 46° |
| 2026-05-05 00:46 | 27.97904 | -82.54076 | 37 ft | 3 kts | 121° |
| 2026-05-05 00:46 | 27.97903 | -82.54075 | 37 ft | 0 kts | 121° |
| 2026-05-05 00:46 | 27.97900 | -82.54071 | 37 ft | 2 kts | 133° |
| 2026-05-05 00:47 | 27.97893 | -82.54066 | 35 ft | 0 kts | 149° |
| 2026-05-05 00:48 | 27.97892 | -82.54066 | 35 ft | 0 kts | 149° |
| 2026-05-05 00:48 | 27.97880 | -82.54061 | 36 ft | 4 kts | 166° |
| 2026-05-05 00:48 | 27.97852 | -82.54032 | 36 ft | 8 kts | 109° |
| 2026-05-05 00:49 | 27.97826 | -82.53964 | 35 ft | 10 kts | 135° |
| 2026-05-05 00:49 | 27.97817 | -82.53884 | 36 ft | 11 kts | 80° |
| 2026-05-05 00:49 | 27.97792 | -82.53814 | 38 ft | 10 kts | 147° |
| 2026-05-05 00:49 | 27.97754 | -82.53813 | 38 ft | 4 kts | 203° |
| 2026-05-05 00:50 | 27.97752 | -82.53814 | 38 ft | 0 kts | 203° |